createdAt,value
2022-08-26T00:01:46.623Z,70.38
2022-08-26T00:04:13.568Z,70.25
2022-08-26T00:06:42.472Z,69.79
2022-08-26T00:09:16.078Z,69.94
2022-08-26T00:11:44.861Z,70.06
2022-08-26T00:14:13.534Z,70.20
2022-08-26T00:16:47.875Z,69.99
2022-08-26T00:19:17.691Z,69.08
2022-08-26T00:21:46.585Z,68.75
2022-08-26T00:24:18.631Z,68.59
2022-08-26T00:26:45.882Z,69.27
2022-08-26T00:29:13.460Z,69.96
2022-08-26T00:31:40.457Z,70.41
2022-08-26T00:34:09.525Z,70.44
2022-08-26T00:36:37.455Z,70.31
2022-08-26T00:39:09.197Z,70.84
2022-08-26T00:41:39.702Z,70.51
2022-08-26T00:44:07.723Z,70.10
2022-08-26T00:46:39.372Z,70.40
2022-08-26T00:49:21.898Z,70.11
2022-08-26T00:51:52.989Z,70.09
2022-08-26T00:54:22.441Z,69.70
2022-08-26T00:57:00.833Z,70.92
2022-08-26T00:59:32.705Z,72.17
2022-08-26T01:02:02.820Z,71.94
2022-08-26T01:04:32.972Z,72.43
2022-08-26T01:07:00.345Z,72.44
2022-08-26T01:09:28.313Z,72.41
2022-08-26T01:12:00.267Z,72.82
2022-08-26T01:14:32.055Z,72.71
2022-08-26T01:17:01.727Z,72.65
2022-08-26T01:19:43.028Z,73.44
2022-08-26T01:22:57.062Z,72.55
2022-08-26T01:25:28.333Z,72.70
2022-08-26T01:27:59.028Z,72.35
2022-08-26T01:30:28.354Z,72.35
2022-08-26T01:32:58.831Z,71.58
2022-08-26T01:35:25.845Z,71.09
2022-08-26T01:37:55.536Z,70.92
2022-08-26T01:40:32.213Z,71.76
2022-08-26T01:43:01.999Z,71.86
2022-08-26T01:45:32.687Z,72.14
2022-08-26T01:48:03.969Z,72.15
2022-08-26T01:50:34.239Z,72.32
2022-08-26T01:53:08.867Z,72.52
2022-08-26T01:55:41.198Z,72.63
2022-08-26T01:58:22.212Z,72.87
2022-08-26T02:00:50.611Z,73.39
2022-08-26T02:03:21.123Z,73.40
2022-08-26T02:06:00.742Z,72.56
2022-08-26T02:08:42.991Z,72.21
2022-08-26T02:11:11.081Z,71.51
2022-08-26T02:13:41.431Z,70.85
2022-08-26T02:16:11.390Z,70.58
2022-08-26T02:18:40.929Z,70.27
2022-08-26T02:21:10.557Z,70.20
2022-08-26T02:23:39.858Z,70.37
2022-08-26T02:26:19.308Z,70.58
2022-08-26T02:28:53.001Z,69.37
2022-08-26T02:31:20.026Z,68.52
2022-08-26T02:33:47.810Z,68.17
2022-08-26T02:36:20.598Z,67.57
2022-08-26T02:38:47.432Z,67.31
2022-08-26T02:41:15.110Z,67.08
2022-08-26T02:43:42.329Z,66.93
2022-08-26T02:46:10.045Z,66.11
2022-08-26T02:48:38.079Z,65.36
2022-08-26T02:51:05.034Z,64.52
2022-08-26T02:53:35.672Z,64.37
2022-08-26T02:56:06.809Z,64.20
2022-08-26T02:58:34.343Z,64.80
2022-08-26T03:01:01.740Z,65.73
2022-08-26T03:03:32.870Z,66.67
2022-08-26T03:06:00.557Z,67.68
2022-08-26T03:08:27.368Z,68.44
2022-08-26T03:10:54.307Z,68.60
2022-08-26T03:13:21.246Z,69.36
2022-08-26T03:15:48.555Z,70.13
2022-08-26T03:18:15.782Z,70.21
2022-08-26T03:20:42.942Z,70.22
2022-08-26T03:23:11.904Z,70.87
2022-08-26T03:25:39.464Z,71.07
2022-08-26T03:28:06.512Z,71.47
2022-08-26T03:30:44.191Z,72.05
2022-08-26T03:33:14.130Z,71.94
2022-08-26T03:35:43.327Z,72.13
2022-08-26T03:38:10.891Z,72.55
2022-08-26T03:40:38.732Z,72.88
2022-08-26T03:43:09.820Z,73.07
2022-08-26T03:45:37.467Z,72.68
2022-08-26T03:48:05.425Z,71.87
2022-08-26T03:50:34.254Z,72.55
2022-08-26T03:53:01.710Z,71.18
2022-08-26T03:55:32.149Z,71.16
2022-08-26T03:58:00.247Z,71.39
2022-08-26T04:00:27.731Z,71.98
2022-08-26T04:02:54.591Z,72.63
2022-08-26T04:05:22.909Z,72.41
2022-08-26T04:07:51.460Z,72.18
2022-08-26T04:10:22.673Z,73.18
2022-08-26T04:12:58.860Z,72.35
2022-08-26T04:15:27.331Z,72.39
2022-08-26T04:17:54.350Z,72.21
2022-08-26T04:20:23.090Z,71.20
2022-08-26T04:22:50.877Z,71.17
2022-08-26T04:25:18.316Z,71.59
2022-08-26T04:27:45.571Z,72.20
2022-08-26T04:30:15.715Z,71.98
2022-08-26T04:32:44.264Z,71.93
2022-08-26T04:35:11.567Z,71.67
2022-08-26T04:37:39.738Z,71.74
2022-08-26T04:40:10.932Z,69.61
2022-08-26T04:42:38.414Z,69.03
2022-08-26T04:45:10.248Z,69.44
2022-08-26T04:47:38.602Z,69.68
2022-08-26T04:50:07.776Z,70.27
2022-08-26T04:52:36.068Z,70.16
2022-08-26T04:55:04.334Z,70.57
2022-08-26T04:57:33.753Z,70.35
2022-08-26T05:00:00.677Z,70.10
2022-08-26T05:02:27.541Z,70.41
2022-08-26T05:04:55.182Z,70.08
2022-08-26T05:07:22.353Z,69.39
2022-08-26T05:09:49.388Z,69.14
2022-08-26T05:12:16.857Z,68.73
2022-08-26T05:14:46.443Z,68.67
2022-08-26T05:17:15.044Z,68.30
2022-08-26T05:19:42.849Z,68.46
2022-08-26T05:22:10.558Z,68.48
2022-08-26T05:24:40.906Z,67.91
2022-08-26T05:27:11.523Z,67.71
2022-08-26T05:29:40.019Z,63.96
2022-08-26T05:32:07.179Z,63.28
2022-08-26T05:34:34.407Z,63.32
2022-08-26T05:37:01.766Z,63.80
2022-08-26T05:39:31.188Z,64.39
2022-08-26T05:41:58.934Z,63.44
2022-08-26T05:44:26.701Z,62.00
2022-08-26T05:46:53.373Z,62.14
2022-08-26T05:49:20.286Z,60.81
2022-08-26T05:51:49.300Z,60.32
2022-08-26T05:54:21.852Z,59.85
2022-08-26T05:56:50.850Z,58.50
2022-08-26T05:59:21.380Z,56.59
2022-08-26T06:01:53.076Z,55.79
2022-08-26T06:04:20.106Z,54.44
2022-08-26T06:06:47.040Z,53.41
2022-08-26T06:09:13.756Z,52.29
2022-08-26T06:11:40.556Z,52.89
2022-08-26T06:14:07.936Z,50.45
2022-08-26T06:16:38.099Z,48.56
2022-08-26T06:19:10.676Z,47.10
2022-08-26T06:21:41.001Z,46.48
2022-08-26T06:24:30.348Z,46.07
2022-08-26T06:27:03.646Z,45.96
2022-08-26T06:29:33.739Z,44.27
2022-08-26T06:32:02.055Z,44.59
2022-08-26T06:34:30.320Z,44.16
2022-08-26T06:37:01.987Z,42.52
2022-08-26T06:39:31.132Z,43.42
2022-08-26T06:41:59.589Z,42.93
2022-08-26T06:44:26.819Z,39.38
2022-08-26T06:46:54.227Z,40.74
2022-08-26T06:49:25.809Z,40.00
2022-08-26T06:51:59.200Z,40.15
2022-08-26T06:54:29.667Z,42.06
2022-08-26T06:56:57.207Z,43.31
2022-08-26T06:59:24.827Z,44.72
2022-08-26T07:01:51.628Z,45.10
2022-08-26T07:04:20.298Z,46.14
2022-08-26T07:06:52.789Z,45.88
2022-08-26T07:09:22.534Z,46.95
2022-08-26T07:11:50.751Z,47.74
2022-08-26T07:14:19.287Z,47.32
2022-08-26T07:16:51.627Z,46.52
2022-08-26T07:19:27.493Z,46.27
2022-08-26T07:22:01.437Z,46.62
2022-08-26T07:24:28.395Z,45.94
2022-08-26T07:27:01.168Z,46.07
2022-08-26T07:29:28.707Z,45.92
2022-08-26T07:31:56.322Z,46.51
2022-08-26T07:34:24.594Z,46.79
2022-08-26T07:36:53.922Z,46.90
2022-08-26T07:39:22.252Z,45.89
2022-08-26T07:41:49.838Z,46.53
2022-08-26T07:44:17.636Z,47.69
2022-08-26T07:46:44.963Z,46.95
2022-08-26T07:49:21.645Z,45.89
2022-08-26T07:51:49.300Z,45.54
2022-08-26T07:54:16.456Z,46.45
2022-08-26T07:56:44.346Z,46.86
2022-08-26T07:59:13.621Z,46.96
2022-08-26T08:01:44.870Z,47.67
2022-08-26T08:04:17.829Z,47.40
2022-08-26T08:06:45.414Z,47.85
2022-08-26T08:09:14.597Z,47.90
2022-08-26T08:11:44.333Z,47.55
2022-08-26T08:14:12.494Z,47.15
2022-08-26T08:16:45.928Z,47.29
2022-08-26T08:19:14.914Z,47.80
2022-08-26T08:21:43.064Z,47.43
2022-08-26T08:24:10.926Z,47.50
2022-08-26T08:26:38.573Z,47.75
2022-08-26T08:29:08.181Z,48.17
2022-08-26T08:34:27.690Z,48.41
2022-08-26T08:36:56.130Z,48.11
2022-08-26T08:39:24.514Z,47.95
2022-08-26T08:42:11.693Z,47.88
2022-08-26T08:44:44.821Z,47.24
2022-08-26T08:47:25.128Z,47.60
2022-08-26T08:49:55.281Z,47.37
2022-08-26T08:52:34.586Z,46.96
2022-08-26T08:55:05.246Z,47.25
2022-08-26T08:58:06.294Z,47.06
2022-08-26T09:00:45.872Z,47.28
2022-08-26T09:03:54.193Z,47.62
2022-08-26T09:06:21.219Z,46.73
2022-08-26T09:08:50.037Z,46.37
2022-08-26T09:11:19.917Z,45.98
2022-08-26T09:13:50.846Z,44.77
2022-08-26T09:16:32.484Z,44.07
2022-08-26T09:19:04.402Z,42.94
2022-08-26T09:21:32.378Z,43.32
2022-08-26T09:23:59.969Z,41.57
2022-08-26T09:26:47.408Z,41.01
2022-08-26T09:29:17.832Z,41.20
2022-08-26T09:31:45.454Z,39.80
2022-08-26T09:34:24.856Z,39.30
2022-08-26T09:36:57.553Z,37.75
2022-08-26T09:39:27.098Z,37.71
2022-08-26T09:42:11.114Z,38.43
2022-08-26T09:45:03.041Z,38.24
2022-08-26T09:47:29.621Z,36.88
2022-08-26T09:50:21.306Z,37.54
2022-08-26T09:53:02.802Z,38.52
2022-08-26T09:55:29.662Z,37.32
2022-08-26T09:57:58.210Z,37.01
2022-08-26T10:00:29.878Z,35.41
2022-08-26T10:03:03.711Z,33.56
2022-08-26T10:05:40.062Z,34.12
2022-08-26T10:08:15.986Z,33.93
2022-08-26T10:10:45.173Z,31.91
2022-08-26T10:13:17.352Z,31.49
2022-08-26T10:16:22.814Z,32.28
2022-08-26T10:18:56.861Z,31.51
2022-08-26T10:21:44.397Z,30.85
2022-08-26T10:24:22.021Z,32.17
2022-08-26T10:27:10.147Z,32.02
2022-08-26T10:29:47.497Z,31.50
2022-08-26T10:32:41.371Z,30.76
2022-08-26T10:35:12.920Z,32.20
2022-08-26T10:37:48.068Z,31.47
2022-08-26T10:40:24.144Z,32.09
2022-08-26T10:43:10.933Z,32.36
2022-08-26T10:45:46.509Z,31.66
2022-08-26T10:48:35.883Z,32.34
2022-08-26T10:51:03.876Z,32.91
2022-08-26T10:54:00.596Z,32.96
2022-08-26T10:56:58.621Z,32.43
2022-08-26T10:59:48.518Z,31.89
2022-08-26T11:02:30.863Z,32.28
2022-08-26T11:05:05.029Z,33.04
2022-08-26T11:07:47.884Z,31.98
2022-08-26T11:10:16.152Z,31.51
2022-08-26T11:12:44.753Z,30.95
2022-08-26T11:15:33.002Z,29.98
2022-08-26T11:18:06.849Z,30.71
2022-08-26T11:20:45.117Z,30.88
2022-08-26T11:23:12.711Z,30.68
2022-08-26T11:26:04.820Z,29.62
2022-08-26T11:28:43.980Z,31.16
2022-08-26T11:31:39.950Z,31.54
2022-08-26T11:34:12.497Z,31.28
2022-08-26T11:36:45.258Z,30.88
2022-08-26T11:39:54.468Z,30.73
2022-08-26T11:42:45.903Z,31.05
2022-08-26T11:45:12.896Z,30.72
2022-08-26T11:47:39.937Z,30.61
2022-08-26T11:50:27.970Z,30.38
2022-08-26T11:53:03.837Z,29.91
2022-08-26T11:55:36.513Z,30.88
2022-08-26T11:58:06.616Z,30.63
2022-08-26T12:00:49.760Z,30.39
2022-08-26T12:03:31.428Z,29.48
2022-08-26T12:05:59.040Z,30.18
2022-08-26T12:08:30.552Z,29.94
2022-08-26T12:11:12.945Z,30.37
2022-08-26T12:13:42.058Z,30.77
2022-08-26T12:16:09.610Z,29.45
2022-08-26T12:18:38.537Z,29.94
2022-08-26T12:21:21.817Z,30.90
2022-08-26T12:23:51.756Z,30.61
2022-08-26T12:26:26.613Z,30.85
2022-08-26T12:29:01.640Z,31.34
2022-08-26T12:31:43.681Z,31.57
2022-08-26T12:34:18.162Z,31.86
2022-08-26T12:36:54.869Z,31.09
2022-08-26T12:39:34.988Z,31.05
2022-08-26T12:42:04.235Z,31.26
2022-08-26T12:44:59.470Z,31.44
2022-08-26T12:47:44.013Z,31.14
2022-08-26T12:50:18.857Z,32.24
2022-08-26T12:53:31.433Z,31.68
2022-08-26T12:56:03.064Z,31.23
2022-08-26T12:58:31.210Z,31.57
2022-08-26T13:01:21.889Z,31.04
2022-08-26T13:03:49.249Z,31.97
2022-08-26T13:06:16.384Z,31.40
2022-08-26T13:08:44.598Z,30.92
2022-08-26T13:11:32.924Z,31.09
2022-08-26T13:14:07.186Z,31.30
2022-08-26T13:16:35.703Z,31.47
2022-08-26T13:19:06.425Z,31.64
2022-08-26T13:21:43.291Z,31.15
2022-08-26T13:24:14.556Z,31.24
2022-08-26T13:26:43.665Z,31.73
2022-08-26T13:29:11.550Z,31.26
2022-08-26T13:31:40.806Z,30.89
2022-08-26T13:34:11.044Z,30.92
2022-08-26T13:36:38.098Z,31.16
2022-08-26T13:39:05.967Z,31.73
2022-08-26T13:41:32.949Z,31.98
2022-08-26T13:43:59.804Z,31.49
2022-08-26T13:46:27.732Z,31.57
2022-08-26T13:48:56.078Z,31.78
2022-08-26T13:51:23.589Z,31.03
2022-08-26T13:53:50.632Z,31.15
2022-08-26T13:56:18.296Z,30.65
2022-08-26T13:58:46.321Z,31.12
2022-08-26T14:01:15.064Z,31.26
2022-08-26T14:03:43.057Z,31.25
2022-08-26T14:06:10.291Z,31.45
2022-08-26T14:08:38.327Z,31.51
2022-08-26T14:11:05.149Z,31.31
2022-08-26T14:13:31.962Z,31.81
2022-08-26T14:16:00.816Z,31.50
2022-08-26T14:18:32.555Z,31.23
2022-08-26T14:20:59.837Z,31.89
2022-08-26T14:23:27.131Z,31.90
2022-08-26T14:25:54.329Z,30.97
2022-08-26T14:28:21.412Z,31.08
2022-08-26T14:30:54.962Z,30.57
2022-08-26T14:33:25.652Z,31.16
2022-08-26T14:36:13.087Z,31.24
2022-08-26T14:38:39.910Z,31.33
2022-08-26T14:41:07.038Z,31.54
2022-08-26T14:43:33.872Z,30.58
2022-08-26T14:46:00.832Z,30.56
2022-08-26T14:48:27.713Z,30.88
2022-08-26T14:50:55.134Z,30.52
2022-08-26T14:53:40.642Z,31.59
2022-08-26T14:56:08.689Z,31.33
2022-08-26T14:58:35.638Z,31.74
2022-08-26T15:01:04.271Z,31.51
2022-08-26T15:03:31.236Z,31.15
2022-08-26T15:05:59.316Z,31.67
2022-08-26T15:08:26.219Z,31.37
2022-08-26T15:10:53.136Z,30.80
2022-08-26T15:13:19.836Z,31.25
2022-08-26T15:15:46.754Z,31.12
2022-08-26T15:18:13.588Z,31.09
2022-08-26T15:20:40.515Z,30.76
2022-08-26T15:23:07.473Z,31.19
2022-08-26T15:25:34.554Z,31.25
2022-08-26T15:28:01.970Z,31.25
2022-08-26T15:30:28.942Z,31.31
2022-08-26T15:32:56.069Z,31.09
2022-08-26T15:35:23.733Z,31.54
2022-08-26T15:40:22.465Z,32.17
2022-08-26T15:42:57.571Z,32.39
2022-08-26T15:45:28.305Z,31.50
2022-08-26T15:48:01.510Z,31.44
2022-08-26T15:50:29.891Z,31.55
2022-08-26T15:52:59.003Z,31.13
2022-08-26T15:55:26.038Z,31.28
2022-08-26T15:57:52.913Z,31.54
2022-08-26T16:00:20.111Z,31.99
2022-08-26T16:02:47.813Z,32.21
2022-08-26T16:05:14.753Z,32.48
2022-08-26T16:07:41.590Z,32.36
2022-08-26T16:10:08.879Z,32.21
2022-08-26T16:12:35.594Z,32.27
2022-08-26T16:15:02.439Z,32.62
2022-08-26T16:17:29.419Z,32.79
2022-08-26T16:19:56.648Z,32.93
2022-08-26T16:22:24.093Z,33.06
2022-08-26T16:24:57.183Z,33.37
2022-08-26T16:27:24.129Z,33.59
2022-08-26T16:29:51.179Z,34.00
2022-08-26T16:32:18.342Z,34.15
2022-08-26T16:34:56.379Z,34.57
2022-08-26T16:37:24.102Z,34.83
2022-08-26T16:39:51.098Z,34.78
2022-08-26T16:42:18.463Z,35.49
2022-08-26T16:44:45.584Z,35.35
2022-08-26T16:47:17.761Z,35.84
2022-08-26T16:49:44.598Z,36.07
2022-08-26T16:52:12.142Z,35.65
2022-08-26T16:54:41.634Z,36.24
2022-08-26T16:57:10.777Z,36.23
2022-08-26T16:59:39.052Z,36.42
2022-08-26T17:02:07.140Z,36.66
2022-08-26T17:04:33.994Z,36.94
2022-08-26T17:07:00.882Z,37.45
2022-08-26T17:09:27.849Z,38.54
2022-08-26T17:11:54.981Z,39.12
2022-08-26T17:14:21.954Z,39.57
2022-08-26T17:16:52.851Z,39.50
2022-08-26T17:19:20.840Z,40.45
2022-08-26T17:21:48.718Z,41.43
2022-08-26T17:24:16.270Z,41.62
2022-08-26T17:26:47.810Z,41.96
2022-08-26T17:29:17.110Z,43.99
2022-08-26T17:31:44.383Z,45.11
2022-08-26T17:34:11.337Z,44.43
2022-08-26T17:36:38.382Z,44.25
2022-08-26T17:39:05.345Z,44.46
2022-08-26T17:41:32.453Z,45.50
2022-08-26T17:43:59.334Z,46.11
2022-08-26T17:46:26.402Z,45.76
2022-08-26T17:48:53.460Z,47.73
2022-08-26T17:51:22.464Z,48.87
2022-08-26T17:53:50.899Z,49.65
2022-08-26T17:56:23.309Z,50.76
2022-08-26T17:58:51.800Z,50.25
2022-08-26T18:01:25.566Z,51.04
2022-08-26T18:03:58.206Z,51.09
2022-08-26T18:06:29.915Z,51.79
2022-08-26T18:08:57.248Z,51.96
2022-08-26T18:11:24.206Z,51.67
2022-08-26T18:13:51.256Z,51.07
2022-08-26T18:16:19.537Z,50.90
2022-08-26T18:18:48.017Z,51.41
2022-08-26T18:21:18.444Z,51.45
2022-08-26T18:23:46.400Z,50.51
2022-08-26T18:26:31.584Z,50.90
2022-08-26T18:28:59.260Z,51.06
2022-08-26T18:31:26.884Z,50.52
2022-08-26T18:33:54.666Z,51.21
2022-08-26T18:36:25.610Z,50.31
2022-08-26T18:38:53.475Z,50.37
2022-08-26T18:41:22.504Z,50.09
2022-08-26T18:43:51.384Z,50.34
2022-08-26T18:46:21.743Z,50.92
2022-08-26T18:48:51.027Z,52.32
2022-08-26T18:51:21.644Z,52.44
2022-08-26T18:53:48.874Z,53.67
2022-08-26T18:56:18.545Z,52.79
2022-08-26T18:58:46.606Z,51.82
2022-08-26T19:01:14.923Z,51.48
2022-08-26T19:03:42.524Z,51.47
2022-08-26T19:06:15.174Z,51.45
2022-08-26T19:08:44.493Z,51.49
2022-08-26T19:11:13.993Z,51.74
2022-08-26T19:13:42.256Z,52.64
2022-08-26T19:16:20.634Z,53.89
2022-08-26T19:18:49.737Z,54.14
2022-08-26T19:21:17.170Z,54.31
2022-08-26T19:23:44.109Z,53.17
2022-08-26T19:26:12.004Z,52.91
2022-08-26T19:28:40.277Z,52.77
2022-08-26T19:31:09.918Z,53.62
2022-08-26T19:33:38.952Z,53.30
2022-08-26T19:36:06.665Z,54.47
2022-08-26T19:38:34.208Z,53.44
2022-08-26T19:41:01.341Z,53.42
2022-08-26T19:43:28.318Z,53.77
2022-08-26T19:45:59.079Z,54.19
2022-08-26T19:48:26.074Z,54.18
2022-08-26T19:50:52.816Z,54.25
2022-08-26T19:53:19.572Z,54.29
2022-08-26T19:55:46.524Z,54.82
2022-08-26T19:58:14.171Z,54.65
2022-08-26T20:00:41.822Z,54.60
2022-08-26T20:03:08.984Z,54.36
2022-08-26T20:05:41.768Z,54.56
2022-08-26T20:08:09.090Z,54.90
2022-08-26T20:10:49.278Z,54.28
2022-08-26T20:13:16.544Z,53.58
2022-08-26T20:15:44.019Z,53.39
2022-08-26T20:18:29.272Z,53.77
2022-08-26T20:21:15.372Z,53.43
2022-08-26T20:23:43.347Z,52.79
2022-08-26T20:26:10.287Z,52.47
2022-08-26T20:28:37.458Z,52.27
2022-08-26T20:31:05.003Z,52.12
2022-08-26T20:33:32.067Z,52.00
2022-08-26T20:36:14.548Z,51.99
2022-08-26T20:38:41.487Z,51.95
2022-08-26T20:41:08.454Z,51.96
2022-08-26T20:43:35.504Z,51.98
2022-08-26T20:46:02.510Z,51.88
2022-08-26T20:48:35.366Z,52.28
2022-08-26T20:51:03.333Z,51.99
2022-08-26T20:53:31.148Z,52.95
2022-08-26T20:56:04.145Z,52.69
2022-08-26T20:58:30.849Z,52.11
2022-08-26T21:00:58.274Z,52.34
2022-08-26T21:03:25.211Z,52.08
2022-08-26T21:05:52.159Z,52.23
2022-08-26T21:08:19.104Z,52.34
2022-08-26T21:10:50.440Z,52.70
2022-08-26T21:13:19.122Z,52.65
2022-08-26T21:15:46.093Z,52.67
2022-08-26T21:18:13.038Z,53.12
2022-08-26T21:20:39.802Z,53.33
2022-08-26T21:23:06.573Z,53.43
2022-08-26T21:25:33.391Z,53.74
2022-08-26T21:28:00.192Z,53.82
2022-08-26T21:30:27.055Z,53.81
2022-08-26T21:32:53.798Z,53.80
2022-08-26T21:35:20.643Z,53.89
2022-08-26T21:37:47.896Z,53.93
2022-08-26T21:40:14.783Z,53.88
2022-08-26T21:42:41.814Z,54.03
2022-08-26T21:45:09.430Z,53.84
2022-08-26T21:47:36.630Z,53.73
2022-08-26T21:50:04.305Z,53.85
2022-08-26T21:52:31.227Z,53.76
2022-08-26T21:54:59.930Z,53.73
2022-08-26T21:57:28.549Z,53.54
2022-08-26T21:59:56.702Z,53.57
2022-08-26T22:02:24.286Z,53.67
2022-08-26T22:04:51.125Z,53.74
2022-08-26T22:07:19.242Z,53.69
2022-08-26T22:09:46.721Z,53.42
2022-08-26T22:12:14.168Z,53.41
2022-08-26T22:14:41.036Z,53.34
2022-08-26T22:17:08.060Z,53.53
2022-08-26T22:19:46.116Z,53.31
2022-08-26T22:22:14.624Z,53.25
2022-08-26T22:24:42.828Z,53.26
2022-08-26T22:27:11.396Z,52.78
2022-08-26T22:29:38.694Z,52.74
2022-08-26T22:32:06.294Z,52.62
2022-08-26T22:34:33.611Z,53.04
2022-08-26T22:37:02.609Z,54.01
2022-08-26T22:39:30.540Z,54.38
2022-08-26T22:41:57.497Z,54.07
2022-08-26T22:44:24.231Z,53.28
2022-08-26T22:46:53.648Z,53.14
2022-08-26T22:49:21.109Z,52.75
2022-08-26T22:51:48.351Z,52.24
2022-08-26T22:54:16.209Z,52.30
2022-08-26T22:56:44.720Z,53.34
2022-08-26T22:59:13.095Z,52.38
2022-08-26T23:01:42.804Z,52.03
2022-08-26T23:04:10.553Z,51.68
2022-08-26T23:06:39.256Z,51.82
2022-08-26T23:09:07.479Z,51.34
2022-08-26T23:11:34.721Z,51.49
2022-08-26T23:14:06.371Z,51.24
2022-08-26T23:16:38.003Z,51.03
2022-08-26T23:19:10.393Z,50.90
2022-08-26T23:21:38.340Z,51.04
2022-08-26T23:24:07.102Z,50.95
2022-08-26T23:26:34.929Z,50.85
2022-08-26T23:29:02.672Z,50.81
2022-08-26T23:31:29.556Z,50.75
2022-08-26T23:34:14.894Z,50.57
2022-08-26T23:36:42.969Z,50.97
2022-08-26T23:39:11.687Z,50.78
2022-08-26T23:41:38.705Z,51.11
2022-08-26T23:44:05.860Z,51.95
2022-08-26T23:46:33.998Z,51.54
2022-08-26T23:49:01.389Z,51.23
2022-08-26T23:51:46.678Z,51.04
2022-08-26T23:54:15.693Z,50.90
2022-08-26T23:56:43.005Z,51.07
2022-08-26T23:59:09.864Z,51.38
